KALNKGPH

Guest
Details From KALN - ST LOUIS RGNL
To KGPH - CLAY COUNTY RGNL
Flight Number -
Tags generated
Created
Modified
Stats Distance 200 nm / 371 km
Max Altitude 20,900 ft / 6,370 m
Waypoints 3
Social Downloads 0
Likes 0
Share VATSIM

Download

Looking for another format? Having issues loading an existing format? Contact us
Advertisement - Login to hide

Notes

Basic altitude profile: - Ascent Rate: 800ft/min - Ascent Speed: 80kts - Cruise Altitude: 8500ft - Cruise Speed: 94kts - Descent Rate: 1500ft/min - Descent Speed: 80kts Options: - Use NATs: yes - Use PACOTS: yes - Use low airways: yes - Use high airways: yes

Route

KALN HLV KGPH

ID Type Via Altitude Latitude Longitude Leg Dist Tot Dist Heading (true) Name
O KALN APT - 0 ft / 0 m 38.89022˚ -90.04655˚ - 0 nm - ST LOUIS RGNL
HLV VOR - 20,900 ft / 6,370 m 39.11353˚ -92.12822˚ 98 nm 98 nm 279° / 277° HALLSVILLE VORTAC
O KGPH APT - 0 ft / 0 m 39.33251˚ -94.30965˚ 102 nm 200 nm 278° / 277° CLAY COUNTY RGNL

Altitude Profile

Advertisement - Login to hide

Weather


0- 5 10 15 20 25 30 35+ Temperature / ° C

Clouds and Precipitation
Forecast for 2017-12-11 12:00 UTC. Updated 23 minutes ago

Ground ~20,000 ft ~40,000 ft Winds

KALN

Details ICAO KALN
Name ST LOUIS RGNL
Region United States
Timezone America/Chicago (UTC-6.0)
Stats Elevation 544 ft / 166 m (AMSL)
Location 38.890223° -90.046554°
Runways 2
Magnetic Variation 1.675° W

METAR

KALN 110935Z AUTO 00000KT 10SM CLR M04/M05 A3008 RMK AO2 T10431051

Decode

TAF

Not found

Departure Runways

ID Width Length Bearing (true) Bearing (mag) Surface Threshold Offset Overrun Length
11 150 ft / 46 m 8,088 ft / 2,465 m 113.43° 115.10° Asphalt 0 ft / 0 m 0 ft / 0 m
17 100 ft / 30 m 6,513 ft / 1,985 m 173.38° 175.05° Asphalt 0 ft / 0 m 0 ft / 0 m
29 150 ft / 46 m 8,088 ft / 2,465 m 293.45° 295.12° Asphalt 0 ft / 0 m 0 ft / 0 m
35 100 ft / 30 m 6,513 ft / 1,985 m 353.38° 355.05° Asphalt 0 ft / 0 m 0 ft / 0 m

KGPH

Details ICAO KGPH
Name CLAY COUNTY RGNL
Region United States
Timezone America/Chicago (UTC-6.0)
Stats Elevation 777 ft / 237 m (AMSL)
Location 39.332509° -94.309647°
Runways 1
Magnetic Variation 1.456° E

METAR

KGPH 110935Z AUTO 00000KT 10SM CLR M04/M06 A3002 RMK AO2

Decode

TAF

Not found

Destination Runways

ID Width Length Bearing (true) Bearing (mag) Surface Threshold Offset Overrun Length
18 100 ft / 30 m 5,512 ft / 1,680 m 187.09° 185.63° Asphalt 0 ft / 0 m 0 ft / 0 m
36 100 ft / 30 m 5,512 ft / 1,680 m 7.09° 5.63° Asphalt 0 ft / 0 m 0 ft / 0 m